Time;durP1;ratioP1;P1;durP2;ratioP2;P2;SDS_P1;SDS_P2;PMS_P1;PMS_P2;Temp;Humidity;BMP_temperature;BMP_pressure;BME280_temperature;BME280_humidity;BME280_pressure;Samples;Min_cycle;Max_cycle;Signal;HPM_P1;HPM_P2
2022/12/31 00:01:05;;;;;;;9.05;6.50;;;12.00;99.90;;;;;;4993959;28;20034;-39
2022/12/31 00:03:32;;;;;;;8.30;5.95;;;12.00;99.90;;;;;;5010928;28;20042;-40
2022/12/31 00:05:58;;;;;;;7.10;5.45;;;11.90;99.90;;;;;;5021057;28;20492;-39
2022/12/31 00:08:24;;;;;;;12.93;7.85;;;11.90;99.90;;;;;;5014450;28;20038;-39
2022/12/31 00:10:49;;;;;;;9.20;6.35;;;11.90;99.90;;;;;;4996800;28;20589;-39
2022/12/31 00:13:15;;;;;;;15.43;8.98;;;11.90;99.90;;;;;;5022330;28;20052;-37
2022/12/31 00:15:42;;;;;;;11.43;5.63;;;11.80;99.90;;;;;;5028462;28;20041;-36
2022/12/31 00:18:08;;;;;;;13.18;5.72;;;11.90;99.90;;;;;;5028067;28;20038;-36
2022/12/31 00:20:38;;;;;;;9.23;4.88;;;11.90;99.90;;;;;;5034729;28;20025;-36
2022/12/31 00:23:04;;;;;;;9.45;5.30;;;11.80;99.90;;;;;;5031538;28;20132;-36
2022/12/31 00:25:29;;;;;;;7.50;5.40;;;11.80;99.90;;;;;;5011950;28;20457;-36
2022/12/31 00:27:55;;;;;;;7.72;5.53;;;11.80;99.90;;;;;;5019486;28;20419;-36
2022/12/31 00:30:21;;;;;;;8.90;5.13;;;11.90;99.90;;;;;;5014793;28;20125;-36
2022/12/31 00:32:47;;;;;;;7.28;5.00;;;11.90;99.90;;;;;;5036312;28;20451;-36
2022/12/31 00:35:12;;;;;;;7.75;5.03;;;11.90;99.90;;;;;;5011329;28;20045;-36
2022/12/31 00:37:38;;;;;;;10.73;5.50;;;11.90;99.90;;;;;;5011599;28;20364;-36
2022/12/31 00:40:04;;;;;;;9.13;5.88;;;11.90;99.90;;;;;;5011195;28;20034;-36
2022/12/31 00:42:30;;;;;;;8.20;6.18;;;11.90;99.90;;;;;;4975689;28;20038;-36
2022/12/31 00:44:56;;;;;;;8.23;5.50;;;11.90;99.90;;;;;;5003314;28;20037;-36
2022/12/31 00:47:23;;;;;;;8.35;5.55;;;11.80;99.90;;;;;;5014350;28;20033;-36
2022/12/31 00:49:49;;;;;;;8.15;5.10;;;11.90;99.90;;;;;;5030722;28;20034;-36
2022/12/31 00:52:15;;;;;;;10.38;6.20;;;11.80;99.90;;;;;;5015520;28;20037;-36
2022/12/31 00:54:41;;;;;;;10.52;6.15;;;11.80;99.90;;;;;;5011349;28;20387;-36
2022/12/31 00:57:07;;;;;;;11.80;6.93;;;11.90;99.90;;;;;;5027557;28;20046;-36
2022/12/31 00:59:32;;;;;;;8.82;5.95;;;11.90;99.90;;;;;;5026910;28;20038;-36
2022/12/31 01:01:58;;;;;;;8.15;5.93;;;11.90;99.90;;;;;;5024770;28;20486;-36
2022/12/31 01:04:24;;;;;;;8.80;7.13;;;11.90;99.90;;;;;;5010758;28;20510;-37
2022/12/31 01:06:50;;;;;;;12.05;7.53;;;11.80;99.90;;;;;;5014724;28;20037;-37
2022/12/31 01:09:16;;;;;;;9.43;6.45;;;11.80;99.90;;;;;;5010849;28;20038;-37
2022/12/31 01:11:42;;;;;;;8.63;7.30;;;11.80;99.90;;;;;;4997144;28;20037;-37
2022/12/31 01:14:12;;;;;;;10.45;6.82;;;11.80;99.90;;;;;;5012189;28;20247;-37
2022/12/31 01:16:41;;;;;;;9.02;6.68;;;11.80;99.90;;;;;;5011055;28;20498;-36
2022/12/31 01:19:10;;;;;;;10.85;6.82;;;11.80;99.90;;;;;;5012333;28;20042;-37
2022/12/31 01:21:37;;;;;;;11.52;7.32;;;11.80;99.90;;;;;;5024181;28;20033;-36
2022/12/31 01:24:04;;;;;;;9.55;6.65;;;11.80;99.90;;;;;;5030725;28;20069;-37
2022/12/31 01:26:29;;;;;;;10.63;6.70;;;11.80;99.90;;;;;;5030310;28;20053;-36
2022/12/31 01:28:55;;;;;;;9.50;7.03;;;11.80;99.90;;;;;;5031653;28;20042;-37
2022/12/31 01:31:22;;;;;;;9.25;7.60;;;11.80;99.90;;;;;;5020468;28;20055;-36
2022/12/31 01:33:49;;;;;;;8.52;7.28;;;11.70;99.90;;;;;;4996717;28;20109;-37
2022/12/31 01:36:17;;;;;;;8.15;6.20;;;11.80;99.90;;;;;;5027551;28;20034;-36
2022/12/31 01:38:43;;;;;;;6.85;5.68;;;11.80;99.90;;;;;;5027239;28;20489;-37
2022/12/31 01:41:15;;;;;;;7.80;5.15;;;11.70;99.90;;;;;;5035154;28;20044;-37
2022/12/31 01:43:46;;;;;;;6.68;5.97;;;11.70;99.90;;;;;;5016604;28;20046;-37
2022/12/31 01:46:17;;;;;;;8.77;5.63;;;11.70;99.90;;;;;;5010813;28;20038;-37
2022/12/31 01:48:48;;;;;;;7.50;5.82;;;11.70;99.90;;;;;;5010680;28;20492;-36
2022/12/31 01:51:14;;;;;;;7.43;5.60;;;11.70;99.90;;;;;;5013156;28;20065;-36
2022/12/31 01:53:41;;;;;;;7.30;5.38;;;11.70;99.90;;;;;;5033323;28;20123;-34
2022/12/31 01:56:07;;;;;;;6.72;4.47;;;11.70;99.90;;;;;;5019387;28;20030;-36
2022/12/31 01:58:53;;;;;;;9.38;4.57;;;11.70;99.90;;;;;;5034177;28;20041;-36
2022/12/31 02:01:25;;;;;;;6.10;3.72;;;11.60;99.90;;;;;;5001263;28;20035;-36
2022/12/31 02:03:52;;;;;;;3.83;3.35;;;11.60;99.90;;;;;;5003716;28;20125;-38
2022/12/31 02:06:25;;;;;;;5.28;3.75;;;11.60;99.90;;;;;;5030660;28;20057;-36
2022/12/31 02:08:51;;;;;;;6.80;3.28;;;11.60;99.90;;;;;;5031993;28;20111;-36
2022/12/31 02:11:22;;;;;;;5.82;3.50;;;11.60;99.90;;;;;;5013992;28;20038;-36
2022/12/31 02:13:49;;;;;;;4.28;3.50;;;11.60;99.90;;;;;;5017523;28;20049;-37
2022/12/31 02:16:33;;;;;;;3.58;2.75;;;11.50;99.90;;;;;;5015058;28;20033;-37
2022/12/31 02:19:25;;;;;;;3.50;2.22;;;11.50;99.90;;;;;;5002160;28;20038;-36
2022/12/31 02:21:55;;;;;;;4.85;2.65;;;11.50;99.90;;;;;;5024101;28;20117;-36
2022/12/31 02:24:40;;;;;;;4.22;2.50;;;11.50;99.90;;;;;;5024129;28;20045;-36
2022/12/31 02:27:39;;;;;;;2.13;1.65;;;11.50;99.90;;;;;;5022479;28;20038;-36
2022/12/31 02:30:17;;;;;;;2.80;1.33;;;11.40;99.90;;;;;;5030755;28;20045;-36
2022/12/31 02:33:20;;;;;;;2.60;1.20;;;11.40;99.90;;;;;;5033298;28;20386;-36
2022/12/31 02:35:52;;;;;;;2.50;1.10;;;11.40;99.90;;;;;;5013158;28;20034;-36
2022/12/31 02:38:26;;;;;;;3.10;1.20;;;11.30;99.90;;;;;;5013104;28;20121;-36
2022/12/31 02:40:56;;;;;;;1.35;1.10;;;11.30;99.90;;;;;;5011071;28;20120;-36
2022/12/31 02:43:22;;;;;;;1.50;1.17;;;11.30;99.90;;;;;;4999645;28;20053;-37
2022/12/31 02:46:11;;;;;;;3.72;1.42;;;11.30;99.90;;;;;;5013085;28;20049;-37
2022/12/31 02:48:58;;;;;;;1.75;1.50;;;11.20;99.90;;;;;;5022375;28;20045;-37
2022/12/31 02:51:38;;;;;;;1.75;1.50;;;11.20;99.90;;;;;;5022679;28;20457;-37
2022/12/31 02:54:29;;;;;;;5.65;2.55;;;11.20;99.90;;;;;;5026763;28;20041;-37
2022/12/31 02:57:18;;;;;;;6.78;4.15;;;11.20;99.90;;;;;;4993802;28;20078;-37
2022/12/31 03:02:39;;;;;;;3.30;2.25;;;11.20;99.90;;;;;;5014241;28;20096;-37
2022/12/31 03:05:06;;;;;;;3.40;3.10;;;11.20;99.90;;;;;;5013166;28;20065;-36
2022/12/31 03:07:32;;;;;;;4.18;2.42;;;11.20;99.90;;;;;;5013000;28;20033;-37
2022/12/31 03:09:59;;;;;;;4.25;3.30;;;11.10;99.90;;;;;;5013003;28;20041;-37
2022/12/31 03:12:47;;;;;;;7.15;2.90;;;11.10;99.90;;;;;;5012906;28;20050;-37
2022/12/31 03:15:20;;;;;;;3.53;3.22;;;11.10;99.90;;;;;;5008310;28;20330;-37
2022/12/31 03:17:58;;;;;;;6.53;3.55;;;11.10;99.90;;;;;;5005053;28;20498;-37
2022/12/31 03:23:24;;;;;;;5.97;3.63;;;11.10;99.90;;;;;;5033401;28;20052;-37
2022/12/31 03:25:50;;;;;;;5.50;3.67;;;11.10;99.90;;;;;;5032625;28;20042;-37
2022/12/31 03:28:19;;;;;;;6.10;3.47;;;11.10;99.90;;;;;;5031942;28;20099;-37
2022/12/31 03:30:48;;;;;;;4.05;3.00;;;11.10;99.90;;;;;;5032336;28;20491;-37
2022/12/31 03:33:14;;;;;;;4.72;3.00;;;11.10;99.90;;;;;;5032213;28;20128;-37
2022/12/31 03:35:41;;;;;;;5.82;3.28;;;11.10;99.90;;;;;;5032401;28;20038;-37
2022/12/31 03:38:07;;;;;;;3.00;2.80;;;11.10;99.90;;;;;;5032397;28;20483;-37
2022/12/31 03:40:41;;;;;;;4.80;3.25;;;11.10;99.90;;;;;;5032155;28;20453;-37
2022/12/31 03:43:07;;;;;;;4.90;3.53;;;11.10;99.90;;;;;;4992957;28;20550;-37
2022/12/31 03:45:33;;;;;;;4.78;3.40;;;11.10;99.90;;;;;;4993870;28;20080;-37
2022/12/31 03:48:00;;;;;;;6.82;3.80;;;11.10;99.90;;;;;;5016960;28;20095;-37
2022/12/31 03:50:26;;;;;;;5.80;4.40;;;11.10;99.90;;;;;;5031666;28;20045;-37
2022/12/31 03:52:52;;;;;;;5.38;4.10;;;11.10;99.90;;;;;;5029957;28;20041;-37
2022/12/31 03:55:18;;;;;;;5.40;3.50;;;11.10;99.90;;;;;;5020355;28;20504;-36
2022/12/31 03:57:44;;;;;;;5.65;3.78;;;11.10;99.90;;;;;;5031475;28;20117;-37
2022/12/31 04:00:13;;;;;;;4.68;3.65;;;11.10;99.90;;;;;;5001216;28;20034;-37
2022/12/31 04:02:40;;;;;;;4.82;3.53;;;11.10;99.90;;;;;;4976162;28;20444;-38
2022/12/31 04:05:06;;;;;;;4.78;3.72;;;11.10;99.90;;;;;;4992868;28;20035;-37
2022/12/31 04:07:32;;;;;;;6.43;3.72;;;11.10;99.90;;;;;;4992257;28;20395;-37
2022/12/31 04:09:58;;;;;;;8.60;4.30;;;11.10;99.90;;;;;;4992396;28;20046;-37
2022/12/31 04:12:23;;;;;;;4.22;3.30;;;11.10;99.90;;;;;;5008829;28;20433;-37
2022/12/31 04:14:49;;;;;;;4.22;3.75;;;11.20;99.90;;;;;;5020171;28;20030;-37
2022/12/31 04:17:15;;;;;;;7.35;3.55;;;11.20;99.90;;;;;;5024993;28;20045;-37
2022/12/31 04:19:41;;;;;;;4.93;3.60;;;11.20;99.90;;;;;;5013676;28;20543;-37
2022/12/31 04:22:07;;;;;;;5.60;3.30;;;11.20;99.90;;;;;;5011413;28;20120;-37
2022/12/31 04:24:32;;;;;;;4.25;3.05;;;11.20;99.90;;;;;;5002669;28;20144;-37
2022/12/31 04:26:58;;;;;;;4.32;3.28;;;11.20;99.90;;;;;;5023779;28;20045;-37
2022/12/31 04:29:25;;;;;;;6.95;3.60;;;11.20;99.90;;;;;;5011265;28;20045;-37
2022/12/31 04:31:51;;;;;;;4.00;2.70;;;11.20;99.90;;;;;;5011258;28;20042;-37
2022/12/31 04:34:17;;;;;;;4.57;2.97;;;11.20;99.90;;;;;;5013582;28;20037;-37
2022/12/31 04:36:42;;;;;;;3.80;2.42;;;11.20;99.90;;;;;;5027850;28;20124;-37
2022/12/31 04:39:08;;;;;;;3.78;2.53;;;11.20;99.90;;;;;;5028735;28;20117;-37
2022/12/31 04:41:34;;;;;;;2.95;2.13;;;11.20;99.90;;;;;;5031017;28;20034;-37
2022/12/31 04:44:00;;;;;;;4.53;2.35;;;11.10;99.90;;;;;;5015495;28;20042;-37
2022/12/31 04:46:31;;;;;;;2.92;1.90;;;11.10;99.90;;;;;;5010942;28;20495;-37
2022/12/31 04:48:57;;;;;;;4.50;2.20;;;11.10;99.90;;;;;;5011488;28;20045;-37
2022/12/31 04:51:23;;;;;;;2.55;1.70;;;11.10;99.90;;;;;;5030601;28;20425;-37
2022/12/31 04:53:50;;;;;;;4.55;2.30;;;11.00;99.90;;;;;;5012495;28;20048;-37
2022/12/31 04:56:16;;;;;;;3.08;2.08;;;11.00;99.90;;;;;;5029614;28;20461;-37
2022/12/31 04:58:42;;;;;;;2.95;2.17;;;11.00;99.90;;;;;;5020023;28;20038;-37
2022/12/31 05:01:08;;;;;;;2.63;2.00;;;11.00;99.90;;;;;;5013756;28;20144;-37
2022/12/31 05:03:35;;;;;;;4.00;2.00;;;11.00;99.90;;;;;;5030592;28;20550;-38
2022/12/31 05:06:05;;;;;;;3.53;1.98;;;11.00;99.90;;;;;;5014264;28;20049;-37
2022/12/31 05:08:32;;;;;;;4.38;2.00;;;10.90;99.90;;;;;;5030826;28;20045;-37
2022/12/31 05:10:58;;;;;;;4.30;2.05;;;10.90;99.90;;;;;;5030493;28;20098;-37
2022/12/31 05:13:24;;;;;;;2.55;2.28;;;10.90;99.90;;;;;;5024710;28;20038;-37
2022/12/31 05:15:50;;;;;;;4.57;2.55;;;10.90;99.90;;;;;;5012442;28;20049;-37
2022/12/31 05:18:16;;;;;;;5.30;3.17;;;10.90;99.90;;;;;;5011189;28;20395;-37
2022/12/31 05:20:42;;;;;;;6.40;3.72;;;10.90;99.90;;;;;;5010936;28;20077;-37
2022/12/31 05:23:08;;;;;;;7.38;4.28;;;10.90;99.90;;;;;;5012656;28;20123;-37
2022/12/31 05:25:37;;;;;;;5.28;3.83;;;10.90;99.90;;;;;;5030610;28;20041;-37
2022/12/31 05:28:03;;;;;;;9.60;4.80;;;11.00;99.90;;;;;;5016437;28;20068;-37
2022/12/31 05:30:28;;;;;;;10.50;5.88;;;10.90;99.90;;;;;;5034325;28;20037;-37
2022/12/31 05:32:54;;;;;;;10.10;6.32;;;11.00;99.90;;;;;;5034649;28;20041;-37
2022/12/31 05:35:20;;;;;;;16.05;10.43;;;11.00;99.90;;;;;;5033676;28;20124;-37
2022/12/31 05:37:46;;;;;;;13.30;8.30;;;11.00;99.90;;;;;;5014943;28;20122;-37
2022/12/31 05:40:11;;;;;;;14.75;9.48;;;11.00;99.90;;;;;;5015247;28;20120;-37
2022/12/31 05:42:40;;;;;;;12.38;8.85;;;11.00;99.90;;;;;;5008596;28;20057;-38
2022/12/31 05:45:06;;;;;;;12.48;9.02;;;11.00;99.90;;;;;;4996503;28;20552;-37
2022/12/31 05:47:32;;;;;;;14.43;9.77;;;11.00;99.90;;;;;;4995105;28;20042;-37
2022/12/31 05:49:58;;;;;;;19.63;13.50;;;11.00;99.90;;;;;;4994709;28;20068;-37
2022/12/31 05:52:24;;;;;;;12.20;10.38;;;11.00;99.90;;;;;;4994769;28;20038;-37
2022/12/31 05:54:50;;;;;;;9.77;8.35;;;11.00;99.90;;;;;;5019427;28;20482;-37
2022/12/31 05:57:15;;;;;;;10.15;6.85;;;11.00;99.90;;;;;;5021098;28;20421;-37
2022/12/31 05:59:41;;;;;;;9.27;6.82;;;11.00;99.90;;;;;;5037657;28;20030;-37
2022/12/31 06:02:07;;;;;;;10.30;6.72;;;11.00;99.90;;;;;;5025043;28;20164;-37
2022/12/31 06:04:33;;;;;;;7.32;5.75;;;11.00;99.90;;;;;;5020060;28;20124;-35
2022/12/31 06:06:59;;;;;;;7.70;5.68;;;11.10;99.90;;;;;;5014015;28;20135;-37
2022/12/31 06:09:25;;;;;;;5.95;5.32;;;11.00;99.90;;;;;;5013932;28;20046;-37
2022/12/31 06:11:50;;;;;;;7.57;5.35;;;11.10;99.90;;;;;;5004722;28;20041;-36
2022/12/31 06:14:16;;;;;;;7.20;4.95;;;11.10;99.90;;;;;;5050445;28;20486;-37
2022/12/31 06:16:42;;;;;;;7.47;5.25;;;11.00;99.90;;;;;;5033946;28;20049;-37
2022/12/31 06:19:08;;;;;;;6.25;4.70;;;11.10;99.90;;;;;;5017491;28;20042;-37
2022/12/31 06:21:34;;;;;;;5.30;4.63;;;11.00;99.90;;;;;;5016508;28;20045;-37
2022/12/31 06:24:00;;;;;;;5.55;4.60;;;11.00;99.90;;;;;;5014038;28;20518;-37
2022/12/31 06:26:26;;;;;;;6.10;4.93;;;11.00;99.90;;;;;;5012206;28;20120;-37
2022/12/31 06:28:53;;;;;;;7.82;5.07;;;11.00;99.90;;;;;;4994390;28;20097;-37
2022/12/31 06:31:19;;;;;;;5.95;5.10;;;11.00;99.90;;;;;;4998174;28;20041;-37
2022/12/31 06:33:47;;;;;;;9.63;5.15;;;11.00;99.90;;;;;;5013761;28;20046;-37
2022/12/31 06:36:14;;;;;;;5.32;4.82;;;11.00;99.90;;;;;;4997063;28;20045;-37
2022/12/31 06:38:42;;;;;;;8.85;4.53;;;11.00;99.90;;;;;;5013210;28;20089;-37
2022/12/31 06:41:11;;;;;;;6.90;4.35;;;11.00;99.90;;;;;;5013462;28;20081;-37
2022/12/31 06:43:38;;;;;;;6.05;4.40;;;11.00;99.90;;;;;;5013278;28;20046;-37
2022/12/31 06:46:07;;;;;;;5.72;4.20;;;11.00;99.90;;;;;;5012536;28;20103;-39
2022/12/31 06:48:33;;;;;;;5.45;4.35;;;11.00;99.90;;;;;;5007650;28;20042;-38
2022/12/31 06:51:07;;;;;;;5.47;4.10;;;11.00;99.90;;;;;;5020101;28;20499;-38
2022/12/31 06:53:33;;;;;;;6.07;4.30;;;11.00;99.90;;;;;;5015096;28;20035;-38
2022/12/31 06:56:14;;;;;;;7.03;4.50;;;11.00;99.90;;;;;;5025639;28;20030;-38
2022/12/31 06:58:41;;;;;;;6.53;4.80;;;11.00;99.90;;;;;;5006135;28;20035;-38
2022/12/31 07:01:22;;;;;;;6.68;4.90;;;10.90;99.90;;;;;;5013661;28;20065;-38
2022/12/31 07:03:58;;;;;;;7.15;4.55;;;11.00;99.90;;;;;;5008295;28;20125;-37
2022/12/31 07:06:39;;;;;;;5.00;4.35;;;11.00;99.90;;;;;;5006184;28;20046;-38
2022/12/31 07:09:21;;;;;;;6.00;4.80;;;11.00;99.90;;;;;;5011547;28;20495;-38
2022/12/31 07:12:01;;;;;;;5.90;4.40;;;11.00;99.90;;;;;;4992180;28;20041;-38
2022/12/31 07:14:56;;;;;;;6.13;4.60;;;10.90;99.90;;;;;;4999622;28;20038;-39
2022/12/31 07:17:37;;;;;;;5.75;4.53;;;10.90;99.90;;;;;;4996910;28;20132;-39
2022/12/31 07:20:12;;;;;;;4.65;3.85;;;11.00;99.90;;;;;;4997904;28;20034;-39
2022/12/31 07:22:39;;;;;;;5.28;4.30;;;11.00;99.90;;;;;;4994489;28;20030;-40
2022/12/31 07:25:06;;;;;;;5.75;4.00;;;11.00;99.90;;;;;;4990620;28;20125;-40
2022/12/31 07:28:05;;;;;;;4.55;3.47;;;11.00;99.90;;;;;;5007791;28;20130;-39
2022/12/31 07:30:58;;;;;;;4.68;3.55;;;11.00;99.90;;;;;;4974930;28;20499;-39
2022/12/31 07:33:41;;;;;;;4.43;3.42;;;11.10;99.90;;;;;;5011650;28;20035;-39
2022/12/31 07:36:25;;;;;;;5.60;4.22;;;11.10;99.90;;;;;;4998811;28;20129;-39
2022/12/31 07:39:13;;;;;;;5.20;4.60;;;11.10;99.90;;;;;;5004739;28;20053;-40
2022/12/31 07:41:57;;;;;;;6.38;5.13;;;11.10;99.90;;;;;;5009336;28;20041;-39
2022/12/31 07:44:42;;;;;;;6.30;5.15;;;11.10;99.90;;;;;;5011681;28;20137;-39
2022/12/31 07:47:23;;;;;;;7.57;5.78;;;11.20;99.90;;;;;;5001689;28;20177;-39
2022/12/31 07:49:49;;;;;;;7.53;5.70;;;11.20;99.90;;;;;;5008108;28;21053;-40
2022/12/31 07:52:16;;;;;;;6.43;4.53;;;11.20;99.90;;;;;;5023308;28;20487;-39
2022/12/31 07:54:42;;;;;;;6.53;5.00;;;11.20;99.90;;;;;;4990268;28;20053;-40
2022/12/31 07:57:11;;;;;;;5.97;4.70;;;11.20;99.90;;;;;;4998337;28;20049;-39
2022/12/31 08:00:10;;;;;;;7.53;5.30;;;11.20;99.90;;;;;;5014883;28;20052;-39
2022/12/31 08:02:39;;;;;;;8.95;5.28;;;11.20;99.90;;;;;;4999744;28;20395;-39
2022/12/31 08:05:10;;;;;;;10.40;7.00;;;11.20;99.90;;;;;;5014134;28;20030;-39
2022/12/31 08:07:54;;;;;;;6.80;5.38;;;11.20;99.90;;;;;;5009928;28;20042;-39
2022/12/31 08:10:38;;;;;;;11.32;7.72;;;11.30;99.90;;;;;;5013207;28;20461;-39
2022/12/31 08:13:09;;;;;;;14.38;9.13;;;11.30;99.90;;;;;;5014644;28;20050;-39
2022/12/31 08:15:40;;;;;;;8.90;6.50;;;11.40;99.90;;;;;;5015398;28;20565;-39
2022/12/31 08:18:06;;;;;;;12.25;7.78;;;11.40;99.90;;;;;;5014083;28;20375;-40
2022/12/31 08:20:38;;;;;;;11.00;6.28;;;11.40;99.90;;;;;;5012520;28;21164;-39
2022/12/31 08:23:15;;;;;;;8.00;5.35;;;11.50;99.90;;;;;;5000666;28;20041;-39
2022/12/31 08:25:59;;;;;;;7.85;6.03;;;11.50;99.90;;;;;;5011039;28;20045;-39
2022/12/31 08:28:44;;;;;;;7.05;5.40;;;11.60;99.90;;;;;;5019241;28;20038;-40
2022/12/31 08:31:16;;;;;;;6.30;4.88;;;11.70;99.90;;;;;;5014039;28;20058;-40
2022/12/31 08:33:59;;;;;;;7.18;4.90;;;11.70;99.90;;;;;;5008975;28;20040;-40
2022/12/31 08:36:47;;;;;;;7.75;6.00;;;11.80;99.90;;;;;;5006343;28;20044;-39
2022/12/31 08:39:34;;;;;;;6.30;5.50;;;11.80;99.90;;;;;;5012146;28;20045;-39
2022/12/31 08:42:03;;;;;;;7.97;6.20;;;11.90;99.90;;;;;;5017036;28;20107;-39
2022/12/31 08:44:43;;;;;;;9.07;7.30;;;11.90;99.90;;;;;;4996215;28;20038;-39
2022/12/31 08:47:36;;;;;;;9.88;6.72;;;11.90;99.90;;;;;;5003010;28;20038;-40
2022/12/31 08:50:03;;;;;;;6.70;5.78;;;12.00;99.90;;;;;;5015398;28;20035;-38
2022/12/31 08:52:30;;;;;;;8.70;6.15;;;12.10;99.90;;;;;;4995857;28;20121;-39
2022/12/31 08:54:56;;;;;;;7.30;5.95;;;12.10;99.90;;;;;;5018454;28;20038;-38
2022/12/31 08:57:51;;;;;;;7.38;6.13;;;12.20;99.90;;;;;;5006200;28;20037;-38
2022/12/31 09:00:19;;;;;;;7.93;5.95;;;12.20;99.90;;;;;;5025069;28;20042;-40
2022/12/31 09:03:16;;;;;;;7.43;6.13;;;12.20;99.90;;;;;;5013015;28;20038;-40
2022/12/31 09:06:16;;;;;;;6.05;4.80;;;12.20;99.90;;;;;;5006543;28;20534;-40
2022/12/31 09:08:54;;;;;;;5.32;4.32;;;12.30;99.90;;;;;;5021055;28;20381;-38
2022/12/31 09:11:38;;;;;;;4.38;3.67;;;12.40;99.90;;;;;;5029338;28;20112;-38
2022/12/31 09:14:04;;;;;;;3.53;3.05;;;12.40;99.90;;;;;;5010823;28;20070;-38
2022/12/31 09:16:56;;;;;;;3.80;3.40;;;12.50;99.90;;;;;;5026643;28;20431;-38
2022/12/31 09:19:22;;;;;;;4.43;3.65;;;12.50;99.90;;;;;;5014716;28;20084;-38
2022/12/31 09:21:48;;;;;;;4.93;3.97;;;12.50;99.90;;;;;;4999662;28;20069;-40
2022/12/31 09:24:15;;;;;;;8.18;4.82;;;12.60;99.90;;;;;;5007628;28;20514;-39
2022/12/31 09:27:06;;;;;;;6.72;3.55;;;12.60;99.90;;;;;;5008353;28;20045;-38
2022/12/31 09:29:46;;;;;;;13.43;7.95;;;12.70;99.90;;;;;;4978819;28;20407;-38
2022/12/31 09:32:34;;;;;;;8.30;4.65;;;12.70;99.90;;;;;;5001093;28;20048;-38
2022/12/31 09:35:27;;;;;;;5.60;3.70;;;12.70;99.90;;;;;;5001310;28;20468;-38
2022/12/31 09:38:17;;;;;;;10.48;5.47;;;12.80;99.90;;;;;;4993603;28;20041;-38
2022/12/31 09:40:46;;;;;;;3.88;2.00;;;12.80;99.90;;;;;;5021642;28;20405;-38
2022/12/31 09:43:41;;;;;;;4.28;2.40;;;12.80;99.90;;;;;;5007772;28;20257;-38
2022/12/31 09:46:34;;;;;;;5.15;3.47;;;12.80;99.90;;;;;;5014639;28;20077;-38
2022/12/31 09:49:37;;;;;;;5.32;3.33;;;12.80;99.90;;;;;;5024534;28;20095;-38
2022/12/31 09:52:27;;;;;;;15.35;9.23;;;12.80;99.90;;;;;;5001917;28;20060;-37
2022/12/31 09:55:08;;;;;;;17.08;9.15;;;12.80;99.90;;;;;;5018849;28;20503;-39
2022/12/31 09:57:55;;;;;;;14.32;7.63;;;12.90;99.90;;;;;;5008894;28;20034;-39
2022/12/31 10:00:28;;;;;;;29.23;14.50;;;12.90;99.90;;;;;;5011154;28;20042;-39
2022/12/31 10:03:15;;;;;;;15.02;8.15;;;12.90;99.90;;;;;;4999289;28;20044;-39
2022/12/31 10:06:20;;;;;;;2.78;2.22;;;12.90;99.90;;;;;;5024286;28;20046;-39
2022/12/31 10:09:07;;;;;;;3.50;2.50;;;13.00;99.90;;;;;;4998847;28;20621;-39
2022/12/31 10:11:48;;;;;;;3.85;2.72;;;13.00;99.90;;;;;;5023452;28;20512;-39
2022/12/31 10:14:48;;;;;;;2.67;2.25;;;13.10;99.90;;;;;;5009007;28;20034;-39
2022/12/31 10:17:38;;;;;;;3.15;1.75;;;13.20;99.90;;;;;;5026878;28;20044;-39
2022/12/31 10:20:35;;;;;;;1.33;1.10;;;13.20;99.90;;;;;;5007998;28;20038;-39
2022/12/31 10:23:19;;;;;;;3.67;1.63;;;13.30;99.90;;;;;;5005302;28;20558;-39
2022/12/31 10:26:05;;;;;;;1.77;1.50;;;13.30;99.90;;;;;;5000820;28;20549;-39
2022/12/31 10:28:43;;;;;;;1.77;1.67;;;13.40;99.90;;;;;;5010827;28;20117;-38
2022/12/31 10:31:08;;;;;;;2.00;1.20;;;13.40;99.90;;;;;;5009424;28;20125;-39
2022/12/31 10:33:51;;;;;;;1.58;1.48;;;13.40;99.90;;;;;;5008524;28;20161;-39
2022/12/31 10:36:28;;;;;;;2.50;1.40;;;13.30;99.90;;;;;;5010641;28;20425;-39
2022/12/31 10:39:16;;;;;;;1.05;1.05;;;13.40;99.90;;;;;;5005294;28;20049;-38
2022/12/31 10:42:32;;;;;;;2.28;1.20;;;13.40;99.90;;;;;;5019560;28;20040;-39
2022/12/31 10:45:13;;;;;;;1.50;1.40;;;13.30;99.90;;;;;;5009795;28;20091;-39
2022/12/31 10:48:00;;;;;;;2.45;1.63;;;13.40;99.90;;;;;;5011102;28;20526;-39
2022/12/31 10:50:38;;;;;;;1.65;1.25;;;13.40;99.90;;;;;;5003922;28;20046;-39
2022/12/31 10:53:19;;;;;;;3.65;1.65;;;13.50;99.90;;;;;;5016297;28;20038;-40
2022/12/31 10:56:13;;;;;;;2.15;1.95;;;13.50;99.90;;;;;;5011002;28;20034;-39
2022/12/31 10:58:57;;;;;;;3.25;1.50;;;13.50;99.90;;;;;;5005757;28;20162;-39
2022/12/31 11:01:26;;;;;;;4.03;2.17;;;13.50;99.90;;;;;;5003590;28;20040;-39
2022/12/31 11:04:19;;;;;;;2.55;1.90;;;13.50;99.90;;;;;;5017087;28;20053;-39
2022/12/31 11:07:07;;;;;;;3.33;2.20;;;13.50;99.90;;;;;;5008539;28;20045;-39
2022/12/31 11:10:02;;;;;;;4.15;2.45;;;13.50;99.90;;;;;;4999454;28;20069;-39
2022/12/31 11:13:24;;;;;;;2.95;1.92;;;13.50;99.90;;;;;;5001116;28;20127;-39
2022/12/31 11:16:27;;;;;;;4.00;2.97;;;13.50;99.90;;;;;;4996497;28;20046;-39
2022/12/31 11:19:05;;;;;;;4.03;2.35;;;13.50;99.90;;;;;;4993309;28;20044;-39
2022/12/31 11:21:42;;;;;;;3.50;2.13;;;13.50;99.90;;;;;;5004868;28;20522;-39
2022/12/31 11:24:24;;;;;;;1.92;1.73;;;13.50;99.90;;;;;;5000248;28;20050;-39
2022/12/31 11:27:15;;;;;;;3.67;2.42;;;13.50;99.90;;;;;;5002624;28;20105;-39
2022/12/31 11:30:02;;;;;;;4.15;3.60;;;13.50;99.90;;;;;;5014350;28;20037;-39
2022/12/31 11:32:47;;;;;;;5.35;4.57;;;13.50;99.90;;;;;;5007876;28;20568;-39
2022/12/31 11:35:44;;;;;;;5.57;2.90;;;13.60;99.90;;;;;;5000403;28;20070;-39
2022/12/31 11:38:24;;;;;;;3.63;3.22;;;13.60;99.90;;;;;;5004000;28;20034;-39
2022/12/31 11:41:19;;;;;;;4.60;3.40;;;13.60;99.90;;;;;;5010987;28;20038;-40
2022/12/31 11:43:52;;;;;;;6.20;5.60;;;13.70;99.90;;;;;;4999113;28;20550;-40
2022/12/31 11:46:44;;;;;;;4.07;3.58;;;13.60;99.90;;;;;;5013425;28;20522;-40
2022/12/31 11:49:41;;;;;;;6.90;4.88;;;13.70;99.90;;;;;;4995018;28;20487;-37
2022/12/31 11:52:31;;;;;;;8.55;6.35;;;13.70;99.90;;;;;;5012353;28;20092;-38
2022/12/31 11:55:42;;;;;;;5.60;5.10;;;13.70;99.90;;;;;;5012188;28;20124;-38
2022/12/31 11:58:15;;;;;;;8.02;6.28;;;13.70;99.90;;;;;;5013142;28;20073;-37
2022/12/31 12:00:55;;;;;;;4.50;4.10;;;13.70;99.90;;;;;;5011610;28;20038;-38
2022/12/31 12:03:22;;;;;;;9.02;6.32;;;13.70;99.90;;;;;;5011582;28;20483;-37
2022/12/31 12:05:48;;;;;;;8.27;5.72;;;13.80;99.90;;;;;;5010328;28;20660;-36
2022/12/31 12:08:16;;;;;;;6.10;5.50;;;13.80;99.90;;;;;;4993807;28;20399;-38
2022/12/31 12:11:04;;;;;;;5.35;3.88;;;13.80;99.90;;;;;;5011161;28;20683;-39
2022/12/31 12:13:41;;;;;;;7.65;6.20;;;13.80;99.90;;;;;;5010268;28;20129;-37
2022/12/31 12:16:32;;;;;;;7.57;4.95;;;13.90;99.90;;;;;;5010261;28;20463;-38
2022/12/31 12:19:20;;;;;;;4.90;4.35;;;13.90;99.90;;;;;;5011458;28;20037;-37
2022/12/31 12:21:59;;;;;;;12.52;8.55;;;13.90;99.90;;;;;;5010913;28;20050;-38
2022/12/31 12:24:38;;;;;;;7.47;6.63;;;13.80;99.90;;;;;;5011378;28;20046;-38
2022/12/31 12:27:22;;;;;;;8.18;5.53;;;13.80;99.90;;;;;;5011642;28;20073;-38
2022/12/31 12:30:07;;;;;;;5.30;3.22;;;13.80;99.90;;;;;;5011560;28;20045;-38
2022/12/31 12:32:35;;;;;;;5.43;3.83;;;13.80;99.90;;;;;;5011570;28;20380;-38
2022/12/31 12:35:13;;;;;;;4.47;3.72;;;13.80;99.90;;;;;;5011042;28;20325;-38
2022/12/31 12:37:58;;;;;;;8.68;6.47;;;13.90;99.90;;;;;;5008539;28;20064;-40
2022/12/31 12:40:28;;;;;;;7.35;4.18;;;13.80;99.90;;;;;;5001026;28;20052;-40
2022/12/31 12:43:02;;;;;;;9.15;5.57;;;13.80;99.90;;;;;;5003599;28;20550;-39
2022/12/31 12:45:57;;;;;;;4.13;3.20;;;13.70;99.90;;;;;;5009633;28;20037;-39
2022/12/31 12:48:38;;;;;;;6.97;4.63;;;13.70;99.90;;;;;;5004653;28;20514;-39
2022/12/31 12:51:33;;;;;;;8.18;7.35;;;13.70;99.90;;;;;;5005697;28;20042;-39
2022/12/31 12:54:17;;;;;;;5.57;4.72;;;13.60;99.90;;;;;;5008386;28;20038;-39
2022/12/31 12:57:08;;;;;;;6.15;4.30;;;13.60;99.90;;;;;;5004548;28;20058;-39
2022/12/31 12:59:49;;;;;;;7.50;5.18;;;13.60;99.90;;;;;;5006029;28;20077;-39
2022/12/31 13:02:52;;;;;;;6.43;5.63;;;13.60;99.90;;;;;;5006513;28;20396;-39
2022/12/31 13:05:28;;;;;;;9.43;5.88;;;13.60;99.90;;;;;;5001346;28;20042;-38
2022/12/31 13:08:12;;;;;;;9.48;7.18;;;13.60;99.90;;;;;;5011010;28;20053;-40
2022/12/31 13:10:43;;;;;;;5.97;4.40;;;13.60;99.90;;;;;;5010932;28;20439;-40
2022/12/31 13:13:42;;;;;;;7.10;5.55;;;13.60;99.90;;;;;;5010390;28;20038;-38
2022/12/31 13:16:33;;;;;;;6.32;5.22;;;13.50;99.90;;;;;;5010981;28;20045;-38
2022/12/31 13:19:18;;;;;;;6.78;5.15;;;13.50;99.90;;;;;;5010879;28;20446;-37
2022/12/31 13:22:17;;;;;;;8.30;7.13;;;13.40;99.90;;;;;;5011423;28;20038;-37
2022/12/31 13:24:55;;;;;;;11.02;9.32;;;13.40;99.90;;;;;;5011408;28;20129;-37
2022/12/31 13:27:45;;;;;;;4.70;3.75;;;13.40;99.90;;;;;;5011030;28;20113;-37
2022/12/31 13:30:23;;;;;;;8.82;5.97;;;13.40;99.90;;;;;;4989376;28;20038;-38
2022/12/31 13:33:02;;;;;;;9.15;6.70;;;13.30;99.90;;;;;;5001570;28;20520;-42